Aviation Digital Data Service (ADDS)

Output produced by METARs form (0812 UTC 29 May 2015)
found at http://aviationweather.gov/adds/metars/
 
KLCH 290520Z 2906/3006 17005KT P6SM FEW025 SCT250 
     FM291100 15005KT P6SM SCT020 BKN250 
     TEMPO 2911/2915 4SM BR BKN020 
     FM291500 16005KT P6SM BKN035 
     FM291700 19010KT P6SM VCTS BKN040CB 
     FM300200 16004KT P6SM SCT035 BKN200